createdAt,value
2019-02-20T00:02:32.623Z,11.47
2019-02-20T00:05:37.438Z,10.77
2019-02-20T00:08:42.261Z,10.80
2019-02-20T00:11:47.067Z,14.33
2019-02-20T00:14:51.923Z,11.65
2019-02-20T00:17:56.724Z,11.30
2019-02-20T00:21:01.550Z,11.17
2019-02-20T00:24:06.396Z,9.80
2019-02-20T00:27:11.195Z,10.97
2019-02-20T00:30:16.054Z,11.47
2019-02-20T00:33:20.869Z,11.33
2019-02-20T00:36:25.723Z,10.33
2019-02-20T00:39:30.533Z,9.87
2019-02-20T00:42:35.358Z,9.93
2019-02-20T00:45:41.798Z,10.60
2019-02-20T00:48:51.203Z,10.90
2019-02-20T00:51:57.669Z,10.23
2019-02-20T00:55:02.478Z,9.37
2019-02-20T00:58:08.291Z,10.13
2019-02-20T01:01:13.120Z,11.87
2019-02-20T01:04:17.937Z,11.97
2019-02-20T01:07:22.785Z,12.47
2019-02-20T01:10:27.638Z,12.10
2019-02-20T01:13:32.487Z,13.97
2019-02-20T01:16:37.315Z,11.07
2019-02-20T01:19:42.158Z,12.73
2019-02-20T01:22:46.962Z,12.03
2019-02-20T01:25:51.939Z,10.23
2019-02-20T01:28:56.788Z,13.80
2019-02-20T01:32:01.618Z,10.23
2019-02-20T01:35:07.518Z,10.50
2019-02-20T01:38:12.351Z,10.00
2019-02-20T01:41:17.527Z,12.40
2019-02-20T01:44:22.377Z,10.73
2019-02-20T01:47:27.257Z,9.70
2019-02-20T01:50:32.134Z,12.80
2019-02-20T01:53:37.053Z,10.77
2019-02-20T01:56:41.940Z,14.03
2019-02-20T01:59:46.765Z,8.17
2019-02-20T02:02:51.577Z,7.70
2019-02-20T02:05:56.398Z,8.30
2019-02-20T02:09:01.226Z,8.40
2019-02-20T02:12:07.666Z,10.07
2019-02-20T02:15:20.072Z,8.87
2019-02-20T02:18:19.078Z,8.07
2019-02-20T02:21:23.897Z,10.07
2019-02-20T02:24:28.698Z,9.23
2019-02-20T02:27:33.634Z,10.87
2019-02-20T02:30:38.474Z,9.47
2019-02-20T02:33:43.386Z,8.23
2019-02-20T02:36:48.204Z,8.30
2019-02-20T02:39:53.038Z,7.00
2019-02-20T02:42:57.850Z,6.63
2019-02-20T02:46:02.685Z,7.30
2019-02-20T02:49:07.525Z,7.43
2019-02-20T02:52:12.361Z,6.20
2019-02-20T02:55:17.269Z,7.97
2019-02-20T02:58:22.069Z,6.50
2019-02-20T03:01:26.895Z,7.47
2019-02-20T03:04:31.794Z,8.17
2019-02-20T03:07:36.618Z,8.87
2019-02-20T03:10:41.463Z,6.47
2019-02-20T03:13:46.315Z,8.60
2019-02-20T03:16:51.190Z,7.73
2019-02-20T03:19:56.011Z,6.80
2019-02-20T03:23:00.981Z,7.43
2019-02-20T03:26:05.863Z,7.00
2019-02-20T03:29:10.683Z,8.27
2019-02-20T03:32:15.519Z,6.90
2019-02-20T03:35:20.442Z,6.87
2019-02-20T03:38:30.306Z,7.20
2019-02-20T03:41:32.751Z,6.97
2019-02-20T03:44:37.603Z,9.75
2019-02-20T03:47:42.505Z,7.07
2019-02-20T03:50:48.982Z,10.37
2019-02-20T03:53:53.815Z,9.50
2019-02-20T03:56:58.629Z,8.57
2019-02-20T04:00:04.673Z,8.30
2019-02-20T04:03:10.088Z,9.50
2019-02-20T04:06:14.998Z,9.30
2019-02-20T04:09:19.826Z,9.00
2019-02-20T04:12:24.697Z,9.43
2019-02-20T04:15:29.638Z,11.43
2019-02-20T04:18:34.486Z,13.27
2019-02-20T04:21:39.953Z,10.67
2019-02-20T04:24:44.757Z,10.37
2019-02-20T04:27:49.611Z,8.73
2019-02-20T04:30:54.490Z,11.37
2019-02-20T04:33:59.343Z,9.77
2019-02-20T04:37:04.234Z,9.60
2019-02-20T04:40:09.083Z,11.57
2019-02-20T04:43:13.945Z,11.90
2019-02-20T04:46:18.836Z,12.87
2019-02-20T04:49:23.682Z,10.83
2019-02-20T04:52:28.486Z,12.17
2019-02-20T04:55:33.320Z,16.23
2019-02-20T04:58:38.138Z,16.50
2019-02-20T05:01:42.948Z,13.80
2019-02-20T05:04:47.802Z,14.38
2019-02-20T05:07:52.739Z,13.33
2019-02-20T05:10:57.559Z,13.13
2019-02-20T05:14:02.400Z,13.03
2019-02-20T05:17:07.202Z,11.53
2019-02-20T05:20:12.110Z,12.77
2019-02-20T05:23:16.913Z,14.33
2019-02-20T05:26:21.763Z,11.33
2019-02-20T05:29:26.600Z,16.17
2019-02-20T05:32:31.420Z,10.10
2019-02-20T05:35:36.282Z,12.78
2019-02-20T05:38:42.110Z,14.37
2019-02-20T05:41:46.967Z,15.97
2019-02-20T05:44:51.969Z,18.10
2019-02-20T05:47:57.205Z,15.73
2019-02-20T05:51:02.029Z,14.37
2019-02-20T05:54:06.846Z,16.93
2019-02-20T05:57:11.708Z,10.90
2019-02-20T06:00:16.520Z,11.63
2019-02-20T06:03:21.333Z,15.77
2019-02-20T06:06:26.225Z,12.93
2019-02-20T06:09:31.080Z,13.80
2019-02-20T06:12:35.934Z,12.97
2019-02-20T06:15:43.053Z,16.30
2019-02-20T06:18:48.086Z,14.03
2019-02-20T06:21:52.898Z,14.03
2019-02-20T06:24:57.751Z,11.47
2019-02-20T06:28:03.653Z,12.70
2019-02-20T06:31:08.485Z,11.23
2019-02-20T06:34:13.345Z,12.20
2019-02-20T06:37:18.182Z,11.10
2019-02-20T06:40:22.999Z,15.07
2019-02-20T06:43:27.801Z,10.67
2019-02-20T06:46:32.928Z,10.40
2019-02-20T06:49:37.769Z,15.40
2019-02-20T06:52:42.598Z,15.40
2019-02-20T06:55:47.419Z,11.83
2019-02-20T06:58:52.226Z,13.90
2019-02-20T07:01:57.083Z,17.97
2019-02-20T07:05:21.814Z,10.77
2019-02-20T07:08:32.390Z,11.97
2019-02-20T07:11:43.018Z,19.57
2019-02-20T07:15:12.396Z,10.30
2019-02-20T07:18:22.881Z,13.17
2019-02-20T07:21:53.161Z,14.07
2019-02-20T07:25:12.859Z,13.60
2019-02-20T07:28:44.970Z,11.67
2019-02-20T07:31:49.786Z,15.90
2019-02-20T07:34:55.599Z,11.20
2019-02-20T07:38:01.386Z,12.67
2019-02-20T07:41:06.224Z,12.73
2019-02-20T07:44:11.038Z,13.30
2019-02-20T07:47:15.934Z,25.83
2019-02-20T07:50:21.234Z,13.10
2019-02-20T07:53:26.057Z,13.83
2019-02-20T07:56:30.885Z,14.63
2019-02-20T07:59:35.720Z,12.40
2019-02-20T08:02:40.523Z,11.93
2019-02-20T08:05:45.374Z,15.27
2019-02-20T08:08:50.197Z,18.50
2019-02-20T08:11:55.010Z,14.17
2019-02-20T08:14:59.838Z,14.43
2019-02-20T08:18:04.647Z,16.10
2019-02-20T08:21:09.463Z,15.83
2019-02-20T08:24:14.328Z,16.03
2019-02-20T08:27:20.517Z,14.17
2019-02-20T08:30:25.433Z,13.57
2019-02-20T08:33:30.262Z,12.87
2019-02-20T08:36:35.082Z,17.20
2019-02-20T08:39:39.924Z,16.07
2019-02-20T08:42:44.748Z,17.13
2019-02-20T08:45:49.678Z,13.77
2019-02-20T08:48:54.497Z,17.30
2019-02-20T08:51:59.350Z,12.43
2019-02-20T08:55:06.334Z,15.00
2019-02-20T08:58:11.155Z,19.03
2019-02-20T09:01:15.994Z,14.40
2019-02-20T09:04:21.975Z,13.90
2019-02-20T09:07:26.790Z,17.20
2019-02-20T09:10:31.640Z,16.07
2019-02-20T09:13:36.581Z,23.37
2019-02-20T09:16:41.400Z,16.03
2019-02-20T09:19:46.246Z,19.23
2019-02-20T09:22:51.860Z,17.30
2019-02-20T09:25:56.674Z,13.73
2019-02-20T09:29:01.499Z,18.20
2019-02-20T09:32:06.337Z,21.63
2019-02-20T09:35:11.481Z,16.60
2019-02-20T09:38:16.305Z,16.23
2019-02-20T09:41:22.083Z,18.97
2019-02-20T09:44:27.345Z,14.47
2019-02-20T09:47:32.204Z,16.03
2019-02-20T09:50:37.073Z,19.43
2019-02-20T09:53:41.907Z,15.50
2019-02-20T09:56:46.719Z,15.77
2019-02-20T09:59:52.218Z,18.20
2019-02-20T10:02:57.048Z,18.20
2019-02-20T10:06:01.883Z,22.17
2019-02-20T10:09:07.702Z,15.80
2019-02-20T10:12:12.514Z,16.67
2019-02-20T10:15:18.777Z,13.43
2019-02-20T10:18:23.632Z,16.00
2019-02-20T10:21:28.431Z,16.13
2019-02-20T10:24:33.255Z,21.67
2019-02-20T10:27:38.462Z,19.53
2019-02-20T10:30:43.328Z,14.97
2019-02-20T10:33:48.255Z,13.97
2019-02-20T10:36:53.163Z,17.83
2019-02-20T10:39:58.155Z,15.33
2019-02-20T10:43:03.695Z,16.97
2019-02-20T10:46:08.618Z,16.93
2019-02-20T10:49:13.419Z,15.13
2019-02-20T10:52:18.249Z,20.53
2019-02-20T10:55:23.089Z,19.77
2019-02-20T10:58:27.963Z,23.27
2019-02-20T11:01:32.809Z,18.47
2019-02-20T11:04:37.634Z,17.47
2019-02-20T11:07:42.491Z,24.63
2019-02-20T11:10:47.305Z,22.73
2019-02-20T11:13:52.219Z,17.77
2019-02-20T11:16:57.035Z,16.80
2019-02-20T11:20:01.890Z,20.93
2019-02-20T11:23:07.831Z,13.70
2019-02-20T11:26:18.251Z,17.23
2019-02-20T11:29:19.198Z,18.13
2019-02-20T11:32:24.016Z,21.63
2019-02-20T11:35:28.870Z,22.80
2019-02-20T11:38:33.695Z,15.50
2019-02-20T11:41:38.590Z,15.87
2019-02-20T11:44:43.439Z,16.47
2019-02-20T11:47:48.253Z,17.43
2019-02-20T11:50:53.115Z,16.13
2019-02-20T11:53:57.941Z,16.53
2019-02-20T11:57:02.810Z,12.93
2019-02-20T12:00:11.899Z,17.48
2019-02-20T12:03:16.728Z,16.60
2019-02-20T12:06:21.558Z,16.23
2019-02-20T12:09:26.387Z,21.20
2019-02-20T12:12:31.219Z,19.43
2019-02-20T12:15:36.178Z,21.60
2019-02-20T12:18:41.098Z,17.77
2019-02-20T12:21:46.624Z,16.13
2019-02-20T12:24:51.547Z,15.43
2019-02-20T12:27:56.406Z,16.80
2019-02-20T12:31:01.222Z,16.50
2019-02-20T12:34:06.052Z,18.00
2019-02-20T12:37:10.910Z,21.73
2019-02-20T12:40:15.754Z,23.07
2019-02-20T12:43:20.587Z,22.13
2019-02-20T12:46:25.431Z,17.90
2019-02-20T12:49:30.365Z,16.13
2019-02-20T12:52:35.181Z,19.70
2019-02-20T12:55:40.047Z,18.37
2019-02-20T12:58:44.903Z,17.47
2019-02-20T13:01:49.743Z,16.80
2019-02-20T13:04:54.576Z,21.90
2019-02-20T13:07:59.430Z,16.80
2019-02-20T13:11:04.310Z,20.27
2019-02-20T13:14:09.170Z,23.00
2019-02-20T13:17:14.019Z,16.33
2019-02-20T13:20:18.884Z,16.00
2019-02-20T13:23:23.771Z,18.10
2019-02-20T13:26:28.626Z,17.20
2019-02-20T13:29:33.498Z,17.67
2019-02-20T13:32:38.351Z,22.83
2019-02-20T13:35:43.186Z,19.27
2019-02-20T13:38:48.249Z,20.40
2019-02-20T13:41:53.191Z,17.70
2019-02-20T13:44:58.171Z,17.90
2019-02-20T13:48:03.112Z,17.20
2019-02-20T13:51:08.001Z,18.83
2019-02-20T13:54:12.911Z,21.97
2019-02-20T13:57:17.922Z,15.97
2019-02-20T14:00:22.846Z,20.53
2019-02-20T14:03:28.550Z,23.23
2019-02-20T14:06:33.445Z,17.97
2019-02-20T14:09:38.291Z,21.90
2019-02-20T14:12:43.282Z,20.03
2019-02-20T14:15:48.141Z,17.57
2019-02-20T14:18:52.985Z,17.40
2019-02-20T14:21:57.898Z,19.00
2019-02-20T14:25:02.857Z,16.93
2019-02-20T14:28:08.211Z,14.27
2019-02-20T14:31:13.151Z,20.17
2019-02-20T14:34:18.066Z,17.77
2019-02-20T14:37:22.907Z,16.33
2019-02-20T14:40:27.840Z,17.93
2019-02-20T14:43:32.729Z,16.77
2019-02-20T14:46:38.717Z,15.70
2019-02-20T14:49:44.043Z,18.17
2019-02-20T14:52:48.958Z,16.47
2019-02-20T14:55:54.900Z,15.53
2019-02-20T14:59:00.091Z,17.23
2019-02-20T15:02:05.066Z,14.50
2019-02-20T15:05:11.922Z,17.67
2019-02-20T15:08:16.890Z,18.63
2019-02-20T15:11:21.822Z,21.87
2019-02-20T15:14:26.840Z,19.10
2019-02-20T15:17:31.774Z,15.67
2019-02-20T15:20:36.695Z,17.90
2019-02-20T15:23:41.622Z,15.63
2019-02-20T15:26:47.596Z,13.87
2019-02-20T15:29:52.533Z,15.07
2019-02-20T15:32:57.458Z,12.80
2019-02-20T15:36:02.374Z,18.80
2019-02-20T15:39:07.947Z,15.90
2019-02-20T15:42:14.060Z,15.43
2019-02-20T15:45:19.947Z,14.77
2019-02-20T15:48:24.853Z,16.17
2019-02-20T15:51:29.735Z,14.87
2019-02-20T15:54:34.679Z,16.67
2019-02-20T15:57:39.570Z,10.97
2019-02-20T16:00:44.410Z,15.30
2019-02-20T16:03:49.305Z,13.22
2019-02-20T16:06:54.131Z,16.60
2019-02-20T16:10:00.030Z,23.23
2019-02-20T16:13:04.966Z,15.57
2019-02-20T16:16:10.305Z,19.93
2019-02-20T16:19:15.209Z,20.17
2019-02-20T16:22:20.250Z,18.80
2019-02-20T16:25:25.546Z,22.20
2019-02-20T16:28:33.831Z,23.30
2019-02-20T16:31:36.976Z,21.07
2019-02-20T16:34:42.163Z,16.03
2019-02-20T16:37:47.054Z,17.23
2019-02-20T16:40:51.887Z,22.00
2019-02-20T16:43:56.815Z,18.03
2019-02-20T16:47:01.679Z,19.23
2019-02-20T16:50:06.607Z,16.57
2019-02-20T16:53:11.485Z,19.00
2019-02-20T16:56:16.347Z,19.77
2019-02-20T16:59:21.264Z,23.70
2019-02-20T17:05:36.265Z,24.33
2019-02-20T17:08:41.150Z,18.80
2019-02-20T17:11:45.981Z,20.03
2019-02-20T17:14:50.910Z,22.70
2019-02-20T17:17:55.731Z,20.57
2019-02-20T17:21:02.530Z,18.17
2019-02-20T17:24:08.397Z,17.47
2019-02-20T17:27:13.227Z,17.90
2019-02-20T17:30:19.562Z,19.00
2019-02-20T17:33:24.782Z,22.83
2019-02-20T17:36:29.698Z,16.40
2019-02-20T17:39:34.615Z,17.25
2019-02-20T17:42:39.813Z,16.27
2019-02-20T17:45:44.674Z,21.55
2019-02-20T17:48:50.488Z,20.40
2019-02-20T17:51:55.399Z,16.87
2019-02-20T17:55:00.378Z,16.60
2019-02-20T17:58:05.240Z,16.40
2019-02-20T18:01:12.338Z,19.80
2019-02-20T18:04:17.180Z,19.90
2019-02-20T18:07:22.099Z,19.10
2019-02-20T18:10:26.932Z,15.00
2019-02-20T18:13:31.768Z,16.70
2019-02-20T18:16:36.602Z,14.73
2019-02-20T18:19:41.419Z,14.20
2019-02-20T18:22:46.281Z,15.80
2019-02-20T18:25:51.202Z,20.37
2019-02-20T18:28:56.078Z,13.93
2019-02-20T18:32:01.039Z,19.07
2019-02-20T18:35:08.518Z,12.93
2019-02-20T18:38:13.441Z,21.03
2019-02-20T18:41:19.297Z,16.97
2019-02-20T18:44:24.175Z,23.20
2019-02-20T18:47:29.024Z,18.77
2019-02-20T18:50:33.870Z,14.63
2019-02-20T18:53:38.673Z,18.03
2019-02-20T18:56:43.539Z,19.70
2019-02-20T18:59:49.373Z,16.20
2019-02-20T19:02:54.259Z,9.90
2019-02-20T19:05:59.144Z,12.50
2019-02-20T19:09:07.432Z,13.00
2019-02-20T19:12:34.975Z,16.27
2019-02-20T19:15:45.541Z,19.93
2019-02-20T19:19:08.259Z,13.47
2019-02-20T19:22:43.607Z,17.03
2019-02-20T19:26:25.156Z,16.43
2019-02-20T19:29:48.035Z,13.93
2019-02-20T19:32:55.971Z,18.53
2019-02-20T19:36:18.874Z,14.73
2019-02-20T19:39:39.454Z,16.47
2019-02-20T19:42:59.139Z,14.27
2019-02-20T19:46:23.672Z,13.13
2019-02-20T19:49:41.416Z,16.00
2019-02-20T19:52:50.659Z,16.37
2019-02-20T19:56:30.916Z,23.23
2019-02-20T19:59:48.683Z,14.97
2019-02-20T20:03:32.727Z,15.00
2019-02-20T20:06:58.563Z,13.70
2019-02-20T20:10:12.288Z,19.17
2019-02-20T20:13:29.106Z,14.67
2019-02-20T20:16:42.847Z,10.30
2019-02-20T20:20:12.090Z,12.17
2019-02-20T20:23:45.729Z,13.67
2019-02-20T20:27:10.208Z,14.30
2019-02-20T20:30:32.810Z,13.17
2019-02-20T20:33:52.491Z,9.40
2019-02-20T20:37:05.870Z,14.53
2019-02-20T20:40:26.570Z,12.10
2019-02-20T20:43:52.723Z,13.03
2019-02-20T20:47:14.979Z,9.10
2019-02-20T20:50:43.548Z,14.33
2019-02-20T20:54:06.598Z,12.40
2019-02-20T20:57:36.762Z,11.63
2019-02-20T21:00:57.292Z,13.80
2019-02-20T21:04:24.726Z,9.90
2019-02-20T21:07:44.316Z,12.77
2019-02-20T21:10:57.693Z,13.40
2019-02-20T21:14:08.410Z,14.97
2019-02-20T21:17:32.118Z,11.27
2019-02-20T21:20:58.157Z,10.53
2019-02-20T21:24:20.971Z,11.90
2019-02-20T21:27:54.710Z,15.72
2019-02-20T21:31:23.561Z,14.50
2019-02-20T21:34:53.702Z,14.17
2019-02-20T21:38:13.182Z,7.97
2019-02-20T21:41:41.770Z,10.93
2019-02-20T21:44:52.546Z,11.33
2019-02-20T21:48:03.142Z,10.43
2019-02-20T21:51:13.722Z,11.53
2019-02-20T21:54:21.678Z,12.50
2019-02-20T21:57:59.888Z,13.80
2019-02-20T22:01:25.869Z,13.17
2019-02-20T22:04:39.411Z,10.40
2019-02-20T22:08:14.190Z,13.80
2019-02-20T22:11:24.770Z,11.97
2019-02-20T22:14:35.365Z,9.03
2019-02-20T22:17:51.801Z,12.13
2019-02-20T22:21:11.645Z,12.60
2019-02-20T22:24:19.577Z,12.03
2019-02-20T22:27:30.137Z,10.20
2019-02-20T22:30:44.264Z,8.55
2019-02-20T22:34:01.082Z,12.17
2019-02-20T22:37:31.685Z,11.37
2019-02-20T22:40:48.192Z,14.27
2019-02-20T22:44:20.066Z,9.20
2019-02-20T22:47:42.634Z,11.57
2019-02-20T22:51:06.715Z,12.33
2019-02-20T22:54:20.881Z,12.90
2019-02-20T22:57:54.248Z,11.57
2019-02-20T23:01:07.913Z,10.17
2019-02-20T23:04:17.008Z,9.90
2019-02-20T23:07:33.450Z,8.07
2019-02-20T23:10:43.874Z,13.87
2019-02-20T23:13:54.196Z,11.03
2019-02-20T23:16:59.005Z,11.23
2019-02-20T23:20:05.094Z,10.93
2019-02-20T23:23:09.933Z,13.53
2019-02-20T23:26:14.745Z,14.23
2019-02-20T23:29:19.557Z,12.30
2019-02-20T23:32:25.345Z,10.73
2019-02-20T23:35:30.270Z,10.93
2019-02-20T23:38:35.082Z,12.53
2019-02-20T23:41:39.944Z,9.97
2019-02-20T23:44:45.677Z,9.63
2019-02-20T23:47:50.738Z,12.13
2019-02-20T23:50:55.702Z,14.80
2019-02-20T23:54:00.558Z,14.33
2019-02-20T23:57:05.487Z,13.90
